Time;durP1;ratioP1;P1;durP2;ratioP2;P2;SDS_P1;SDS_P2;PMS_P1;PMS_P2;Temp;Humidity;BMP_temperature;BMP_pressure;BME280_temperature;BME280_humidity;BME280_pressure;Samples;Min_cycle;Max_cycle;Signal;HPM_P1;HPM_P2
2022/04/09 00:00:30;;;;;;;292.75;267.58;;;;;;;18.61;34.62;91518.06;5045725;28;20051;-71
2022/04/09 00:03:04;;;;;;;300.52;275.25;;;;;;;18.62;34.68;91507.97;5047711;28;20037;-70
2022/04/09 00:05:30;;;;;;;292.90;268.02;;;;;;;18.62;34.92;91518.81;5038783;28;20512;-71
2022/04/09 00:07:55;;;;;;;300.80;275.42;;;;;;;18.58;34.65;91516.38;5048955;28;20053;-71
2022/04/09 00:10:21;;;;;;;301.90;276.33;;;;;;;18.59;34.74;91509.72;5055956;28;20136;-71
2022/04/09 00:12:47;;;;;;;304.88;278.60;;;;;;;18.59;34.73;91525.22;5047081;28;20056;-71
2022/04/09 00:15:14;;;;;;;314.02;287.00;;;;;;;18.58;34.77;91534.59;5055542;28;20037;-71
2022/04/09 00:17:45;;;;;;;300.80;274.60;;;;;;;18.55;34.88;91539.06;5041303;28;20056;-71
2022/04/09 00:20:12;;;;;;;301.58;275.58;;;;;;;18.56;34.75;91534.38;5042249;28;20060;-71
2022/04/09 00:22:40;;;;;;;304.98;279.48;;;;;;;18.58;34.63;91537.28;5036299;28;20048;-71
2022/04/09 00:25:08;;;;;;;292.42;267.73;;;;;;;18.58;34.81;91553.53;5054462;28;20086;-71
2022/04/09 00:27:35;;;;;;;297.60;272.55;;;;;;;18.56;34.74;91569.56;5045620;28;20139;-71
2022/04/09 00:30:01;;;;;;;302.05;276.70;;;;;;;18.55;34.67;91559.97;5045404;28;20555;-71
2022/04/09 00:32:26;;;;;;;301.95;276.48;;;;;;;18.54;34.65;91561.97;5042930;28;20070;-71
2022/04/09 00:34:52;;;;;;;296.85;271.60;;;;;;;18.56;34.85;91569.56;5049601;28;20036;-71
2022/04/09 00:37:17;;;;;;;300.35;274.92;;;;;;;18.55;34.71;91576.22;5047061;28;20425;-71
2022/04/09 00:39:43;;;;;;;306.45;280.70;;;;;;;18.54;34.58;91586.31;5052691;28;20044;-71
2022/04/09 00:42:13;;;;;;;297.05;272.15;;;;;;;18.56;34.51;91615.56;5055825;28;20041;-71
2022/04/09 00:44:39;;;;;;;282.60;258.08;;;;;;;18.53;34.72;91617.34;5045807;28;20472;-71
2022/04/09 00:47:05;;;;;;;312.98;286.50;;;;;;;18.54;34.63;91634.31;5047790;28;20071;-71
2022/04/09 00:49:31;;;;;;;303.83;277.95;;;;;;;18.55;34.52;91641.91;5036933;28;20057;-71
2022/04/09 00:52:00;;;;;;;306.65;280.98;;;;;;;18.55;34.62;91663.56;5044448;28;20115;-71
2022/04/09 00:54:27;;;;;;;312.13;285.85;;;;;;;18.54;34.37;91677.63;5044254;28;20404;-71
2022/04/09 00:56:54;;;;;;;303.73;278.25;;;;;;;18.53;34.67;91682.28;5044633;28;20060;-70
2022/04/09 00:59:26;;;;;;;299.83;274.33;;;;;;;18.57;34.63;91696.25;5045442;28;20041;-71
2022/04/09 01:01:52;;;;;;;297.27;271.92;;;;;;;18.57;34.80;91687.41;5052581;28;20084;-71
2022/04/09 01:04:19;;;;;;;308.95;283.13;;;;;;;18.52;34.77;91697.06;5044355;28;20052;-71
2022/04/09 01:06:45;;;;;;;306.65;281.40;;;;;;;18.51;34.80;91709.13;5044912;28;20048;-71
2022/04/09 01:09:10;;;;;;;314.67;287.83;;;;;;;18.53;34.47;91711.34;5039356;28;20060;-71
2022/04/09 01:11:39;;;;;;;302.13;276.35;;;;;;;18.55;34.66;91739.34;5047776;28;20044;-70
2022/04/09 01:14:12;;;;;;;309.02;283.33;;;;;;;18.52;34.63;91742.34;5041441;28;20335;-70
2022/04/09 01:16:38;;;;;;;295.85;270.63;;;;;;;18.49;34.55;91752.22;5047409;28;20052;-71
2022/04/09 01:19:03;;;;;;;301.42;275.42;;;;;;;18.49;34.54;91754.94;5042928;28;20043;-71
2022/04/09 01:21:29;;;;;;;300.33;274.58;;;;;;;18.52;34.77;91774.84;5043497;28;20401;-71
2022/04/09 01:23:55;;;;;;;300.42;274.95;;;;;;;18.50;34.48;91780.03;5037843;28;20041;-71
2022/04/09 01:26:22;;;;;;;300.50;274.98;;;;;;;18.53;34.69;91801.38;5052514;28;20058;-70
2022/04/09 01:28:48;;;;;;;290.05;264.83;;;;;;;18.52;34.74;91804.59;5048110;28;20036;-71
2022/04/09 01:31:14;;;;;;;306.35;280.58;;;;;;;18.48;34.78;91802.19;5040963;28;20044;-71
2022/04/09 01:33:40;;;;;;;298.58;272.90;;;;;;;18.53;34.66;91795.97;5030419;28;20116;-71
2022/04/09 01:36:05;;;;;;;300.45;274.85;;;;;;;18.50;34.77;91802.41;5120960;22;20127;-71
2022/04/09 01:38:34;;;;;;;302.40;276.58;;;;;;;18.48;34.85;91785.22;5021680;28;20064;-71
2022/04/09 01:40:59;;;;;;;296.98;271.45;;;;;;;18.50;35.00;91788.88;5018778;28;20068;-71
2022/04/09 01:43:25;;;;;;;295.17;269.65;;;;;;;18.48;34.74;91810.31;5040554;28;20490;-71
2022/04/09 01:45:51;;;;;;;291.80;266.67;;;;;;;18.51;34.97;91803.13;5045399;28;20458;-71
2022/04/09 01:48:16;;;;;;;296.73;271.08;;;;;;;18.45;34.77;91811.31;5040502;28;20044;-71
2022/04/09 01:50:42;;;;;;;297.52;271.95;;;;;;;18.47;34.93;91841.31;5044642;28;20136;-71
2022/04/09 01:53:07;;;;;;;299.35;273.33;;;;;;;18.40;34.79;91837.19;5036140;28;20071;-71
2022/04/09 01:55:33;;;;;;;306.08;279.05;;;;;;;18.41;34.85;91832.53;5028987;28;20103;-71
2022/04/09 01:57:58;;;;;;;300.17;274.65;;;;;;;18.46;34.88;91834.44;5033764;28;20053;-70
2022/04/09 02:00:25;;;;;;;298.88;273.63;;;;;;;18.44;34.98;91848.47;5039133;28;20064;-70
2022/04/09 02:02:51;;;;;;;297.08;271.83;;;;;;;18.48;34.90;91869.84;5043653;28;20103;-70
2022/04/09 02:05:18;;;;;;;311.98;284.77;;;;;;;18.48;35.00;91869.13;5025406;28;20131;-71
2022/04/09 02:07:45;;;;;;;301.38;275.50;;;;;;;18.38;34.82;91880.28;5034995;28;20061;-70
2022/04/09 02:10:11;;;;;;;302.67;276.90;;;;;;;18.10;35.49;91899.50;5040104;28;20056;-70
2022/04/09 02:12:38;;;;;;;299.75;274.23;;;;;;;18.00;35.86;91960.56;5041509;28;20044;-70
2022/04/09 02:15:07;;;;;;;299.95;274.65;;;;;;;18.11;35.33;91940.81;5039399;28;20502;-70
2022/04/09 02:17:35;;;;;;;295.92;270.90;;;;;;;17.98;35.42;91970.41;5036561;28;20055;-71
2022/04/09 02:20:01;;;;;;;304.35;278.55;;;;;;;18.06;35.31;91980.19;5041764;28;20041;-71
2022/04/09 02:22:33;;;;;;;291.52;266.30;;;;;;;18.06;35.22;91987.56;5037642;28;20056;-71
2022/04/09 02:24:58;;;;;;;295.10;269.88;;;;;;;18.12;35.00;92001.03;5048159;28;20131;-71
2022/04/09 02:27:24;;;;;;;290.45;265.40;;;;;;;18.12;34.97;92006.47;5042727;28;20192;-71
2022/04/09 02:29:49;;;;;;;303.00;277.15;;;;;;;18.12;34.87;92001.03;5042848;28;20047;-71
2022/04/09 02:32:15;;;;;;;301.05;275.10;;;;;;;18.12;34.75;92019.97;5029098;28;20509;-70
2022/04/09 02:34:40;;;;;;;294.95;269.70;;;;;;;18.15;34.78;92044.06;5042424;28;20044;-70
2022/04/09 02:37:13;;;;;;;297.85;272.42;;;;;;;18.13;34.96;92075.56;5042609;28;20040;-71
2022/04/09 02:39:41;;;;;;;293.98;268.65;;;;;;;18.12;34.70;92099.16;5026927;28;20137;-70
2022/04/09 02:42:06;;;;;;;297.95;272.52;;;;;;;18.08;34.83;92125.75;5038147;28;20057;-71
2022/04/09 02:44:32;;;;;;;292.98;267.80;;;;;;;18.13;34.88;92145.91;5043306;28;20382;-71
2022/04/09 02:46:58;;;;;;;298.92;273.52;;;;;;;18.16;34.78;92164.56;5038703;28;20112;-71
2022/04/09 02:49:23;;;;;;;287.00;262.10;;;;;;;18.14;34.67;92177.13;5035803;28;20041;-71
2022/04/09 02:51:49;;;;;;;290.90;265.88;;;;;;;18.09;34.65;92201.00;5008284;28;20049;-71
2022/04/09 02:54:17;;;;;;;305.48;279.05;;;;;;;18.06;34.50;92239.84;5027243;28;20064;-70
2022/04/09 02:56:43;;;;;;;294.35;268.92;;;;;;;18.02;34.48;92265.69;5023375;28;20148;-71
2022/04/09 02:59:13;;;;;;;299.88;274.35;;;;;;;17.98;34.24;92297.66;5039184;28;20053;-70
2022/04/09 03:01:40;;;;;;;303.17;277.13;;;;;;;17.91;34.37;92325.19;5028847;28;20147;-71
2022/04/09 03:04:07;;;;;;;292.35;267.00;;;;;;;17.93;34.25;92345.13;5043314;28;20517;-71
2022/04/09 03:06:32;;;;;;;288.15;262.10;;;;;;;17.98;34.09;92349.06;5035451;28;20449;-71
2022/04/09 03:08:58;;;;;;;294.70;269.25;;;;;;;17.94;34.04;92352.00;5040256;28;20152;-71
2022/04/09 03:11:23;;;;;;;291.23;266.20;;;;;;;17.92;33.73;92349.06;5042186;28;20503;-71
2022/04/09 03:13:49;;;;;;;300.15;274.73;;;;;;;17.93;33.75;92347.81;5042519;28;20045;-71
2022/04/09 03:16:14;;;;;;;303.95;277.42;;;;;;;18.00;33.76;92360.84;5041768;28;20056;-71
2022/04/09 03:18:40;;;;;;;296.10;270.52;;;;;;;18.02;33.91;92368.47;5038501;28;20037;-71
2022/04/09 03:21:05;;;;;;;290.80;265.52;;;;;;;18.01;33.82;92394.78;5045361;28;20033;-71
2022/04/09 03:23:31;;;;;;;294.85;268.88;;;;;;;18.04;33.87;92401.19;5036969;28;20041;-70
2022/04/09 03:25:57;;;;;;;288.25;263.15;;;;;;;18.03;33.72;92432.16;5040559;28;20139;-70
2022/04/09 03:28:23;;;;;;;296.30;270.45;;;;;;;18.02;33.72;92446.91;5038451;28;20056;-70
2022/04/09 03:30:48;;;;;;;300.80;274.75;;;;;;;18.03;33.82;92451.84;5030768;28;20058;-70
2022/04/09 03:33:14;;;;;;;294.02;268.85;;;;;;;18.05;33.76;92464.88;5037115;28;20042;-70
2022/04/09 03:35:40;;;;;;;290.45;265.20;;;;;;;18.05;33.80;92473.72;5035900;28;20105;-70
2022/04/09 03:38:06;;;;;;;281.73;257.13;;;;;;;18.06;33.92;92475.19;5043969;28;20049;-70
2022/04/09 03:40:31;;;;;;;293.73;268.80;;;;;;;18.03;33.82;92487.00;5045492;28;20092;-70
2022/04/09 03:42:57;;;;;;;298.05;272.20;;;;;;;18.04;33.67;92496.59;5046199;28;20091;-70
2022/04/09 03:45:22;;;;;;;303.33;276.65;;;;;;;18.05;33.58;92508.88;5045174;28;20041;-70
2022/04/09 03:47:48;;;;;;;293.70;267.95;;;;;;;18.03;33.68;92519.47;5045833;28;20041;-70
2022/04/09 03:50:14;;;;;;;292.38;266.52;;;;;;;18.05;33.49;92533.25;5027176;28;20041;-70
2022/04/09 03:52:40;;;;;;;305.52;278.70;;;;;;;18.04;33.68;92542.59;5036463;28;20049;-70
2022/04/09 03:55:07;;;;;;;287.30;262.02;;;;;;;18.06;33.60;92550.94;5043583;28;20118;-70
2022/04/09 03:57:32;;;;;;;296.15;270.67;;;;;;;18.09;33.80;92554.63;5029815;28;20090;-70
2022/04/09 03:59:58;;;;;;;298.33;272.63;;;;;;;18.12;33.71;92556.38;5042861;28;20045;-70
2022/04/09 04:02:24;;;;;;;299.15;273.58;;;;;;;18.15;33.69;92560.81;5044913;28;20188;-70
2022/04/09 04:04:50;;;;;;;290.65;265.52;;;;;;;18.19;33.71;92574.09;5045220;28;20041;-70
2022/04/09 04:07:23;;;;;;;301.67;275.63;;;;;;;18.21;33.73;92583.16;5045185;28;20051;-70
2022/04/09 04:09:49;;;;;;;295.90;270.58;;;;;;;18.29;33.83;92596.97;5033273;28;20049;-70
2022/04/09 04:12:15;;;;;;;304.17;277.83;;;;;;;18.31;33.69;92608.03;5040159;28;20055;-70
2022/04/09 04:14:40;;;;;;;297.60;272.08;;;;;;;18.35;33.79;92608.53;5041892;28;20037;-70
2022/04/09 04:17:06;;;;;;;304.15;278.55;;;;;;;18.37;33.54;92619.63;5047161;28;20472;-70
2022/04/09 04:19:31;;;;;;;314.92;287.70;;;;;;;18.37;33.74;92619.63;5042959;28;20045;-71
2022/04/09 04:21:57;;;;;;;298.50;273.20;;;;;;;18.38;33.70;92616.41;5047328;28;20121;-71
2022/04/09 04:24:28;;;;;;;306.02;280.08;;;;;;;18.38;33.62;92619.13;5044893;28;20068;-70
2022/04/09 04:26:54;;;;;;;304.90;279.48;;;;;;;18.39;33.48;92636.09;5041566;28;20057;-70
2022/04/09 04:29:19;;;;;;;306.58;281.02;;;;;;;18.42;33.48;92644.00;5039273;28;20111;-70
2022/04/09 04:31:45;;;;;;;298.15;273.00;;;;;;;18.43;33.33;92655.56;5039742;28;20041;-70
2022/04/09 04:34:10;;;;;;;309.83;284.17;;;;;;;18.44;33.35;92665.91;5044288;28;20061;-71
2022/04/09 04:36:36;;;;;;;304.67;279.27;;;;;;;18.46;33.20;92661.97;5026890;28;20060;-71
2022/04/09 04:39:02;;;;;;;302.13;276.73;;;;;;;18.50;33.49;92665.91;5041405;28;20064;-71
2022/04/09 04:41:28;;;;;;;307.13;281.65;;;;;;;18.50;33.18;92663.22;5047551;28;20045;-71
2022/04/09 04:43:54;;;;;;;314.50;288.75;;;;;;;18.52;33.11;92665.41;5046011;28;20049;-71
2022/04/09 04:46:20;;;;;;;311.52;285.17;;;;;;;18.52;33.10;92668.88;5039050;28;20049;-71
2022/04/09 04:48:46;;;;;;;325.85;299.35;;;;;;;18.52;33.23;92687.81;5032946;28;20106;-71
2022/04/09 04:51:12;;;;;;;306.13;280.75;;;;;;;18.55;33.24;92691.53;5044813;28;20060;-71
2022/04/09 04:53:37;;;;;;;319.13;292.75;;;;;;;18.53;33.25;92700.13;5041972;28;20068;-71
2022/04/09 04:56:03;;;;;;;322.85;296.58;;;;;;;18.52;33.01;92709.47;5043439;28;20037;-71
2022/04/09 04:58:28;;;;;;;318.55;292.73;;;;;;;18.53;33.16;92715.63;5042967;28;20092;-71
2022/04/09 05:00:54;;;;;;;320.65;294.92;;;;;;;18.52;32.78;92727.69;5045204;28;20123;-71
2022/04/09 05:03:19;;;;;;;319.33;293.08;;;;;;;18.53;32.97;92746.16;5040587;28;20048;-71
2022/04/09 05:05:45;;;;;;;320.48;293.90;;;;;;;18.54;33.03;92750.34;5033616;28;20130;-71
2022/04/09 05:08:11;;;;;;;320.00;294.00;;;;;;;18.51;32.88;92756.00;5044135;28;20039;-72
2022/04/09 05:10:36;;;;;;;322.77;296.63;;;;;;;18.52;33.03;92768.31;5043611;28;20044;-71
2022/04/09 05:13:02;;;;;;;317.13;291.40;;;;;;;18.49;32.77;92780.84;5035553;28;20095;-72
2022/04/09 05:15:27;;;;;;;328.42;301.73;;;;;;;18.49;32.79;92793.63;5040791;28;20525;-71
2022/04/09 05:17:53;;;;;;;307.83;282.20;;;;;;;18.52;32.97;92804.25;5044306;28;20126;-71
2022/04/09 05:20:19;;;;;;;317.08;290.83;;;;;;;18.51;32.88;92807.44;5044211;28;20122;-71
2022/04/09 05:22:46;;;;;;;317.45;291.67;;;;;;;18.49;32.92;92826.88;5024471;28;20092;-71
2022/04/09 05:25:14;;;;;;;320.70;293.85;;;;;;;18.48;32.76;92827.34;5044986;28;20103;-70
2022/04/09 05:27:41;;;;;;;318.70;292.63;;;;;;;18.48;32.96;92811.84;5027100;28;20037;-72
2022/04/09 05:30:23;;;;;;;322.60;296.38;;;;;;;18.49;32.96;92832.28;5020551;28;20077;-72
2022/04/09 05:32:49;;;;;;;315.08;289.33;;;;;;;18.50;32.99;92839.19;5043019;28;20061;-72
2022/04/09 05:35:16;;;;;;;336.13;308.17;;;;;;;18.51;32.81;92848.03;5045065;28;20045;-72
2022/04/09 05:37:44;;;;;;;322.08;296.00;;;;;;;18.51;32.82;92839.91;5018512;28;20488;-72
2022/04/09 05:40:10;;;;;;;331.05;303.75;;;;;;;18.50;32.75;92873.63;5031240;28;20052;-70
2022/04/09 05:42:36;;;;;;;312.80;287.08;;;;;;;18.52;32.61;92882.75;5026132;28;20559;-71
2022/04/09 05:45:02;;;;;;;324.67;297.80;;;;;;;18.57;32.73;92892.88;5037660;28;20128;-70
2022/04/09 05:47:27;;;;;;;324.60;298.23;;;;;;;18.59;32.81;92886.97;5043018;28;20044;-70
2022/04/09 05:49:53;;;;;;;320.35;293.80;;;;;;;18.57;32.72;92892.13;5040919;28;20770;-71
2022/04/09 05:52:19;;;;;;;318.88;292.75;;;;;;;18.57;32.73;92898.28;5028288;28;20449;-71
2022/04/09 05:54:45;;;;;;;317.48;291.45;;;;;;;18.52;32.81;92890.88;5033515;28;20037;-71
2022/04/09 05:57:11;;;;;;;307.15;281.63;;;;;;;18.52;32.86;92890.88;5045044;28;20059;-71
2022/04/09 05:59:36;;;;;;;316.48;290.73;;;;;;;18.56;32.79;92898.78;5045437;28;20049;-71
2022/04/09 06:02:03;;;;;;;319.08;293.20;;;;;;;18.57;33.04;92903.72;5041704;28;20490;-71
2022/04/09 06:04:28;;;;;;;328.42;301.30;;;;;;;18.55;32.86;92900.75;5041636;28;20041;-72
2022/04/09 06:06:55;;;;;;;314.85;289.00;;;;;;;18.56;32.91;92915.75;5041902;28;20055;-71
2022/04/09 06:09:21;;;;;;;315.65;289.77;;;;;;;18.56;32.82;92915.75;5039964;28;20076;-71
2022/04/09 06:11:47;;;;;;;323.50;297.13;;;;;;;18.58;33.00;92915.28;5034443;28;20037;-71
2022/04/09 06:14:13;;;;;;;313.38;287.63;;;;;;;18.58;32.62;92926.84;5036997;28;20128;-71
2022/04/09 06:16:40;;;;;;;318.15;292.33;;;;;;;18.60;32.94;92937.19;5045093;28;20052;-71
2022/04/09 06:19:06;;;;;;;313.98;288.15;;;;;;;18.61;32.91;92936.75;5042755;28;20223;-70
2022/04/09 06:21:33;;;;;;;321.52;295.17;;;;;;;18.63;32.87;92944.38;5042016;28;20153;-69
2022/04/09 06:24:00;;;;;;;316.77;290.88;;;;;;;18.67;32.73;92953.78;5041897;28;20132;-69
2022/04/09 06:26:27;;;;;;;312.92;287.38;;;;;;;18.66;32.83;92954.25;5037538;28;20045;-71
2022/04/09 06:28:55;;;;;;;314.87;288.47;;;;;;;18.65;32.73;92967.06;5040741;28;20593;-70
2022/04/09 06:31:21;;;;;;;325.45;299.13;;;;;;;18.66;32.79;92965.81;5040691;28;20045;-69
2022/04/09 06:33:47;;;;;;;315.20;289.17;;;;;;;18.64;32.85;92968.28;5044493;28;20047;-70
2022/04/09 06:36:15;;;;;;;310.00;284.17;;;;;;;18.63;32.62;92964.09;5043879;28;20055;-74
2022/04/09 06:38:41;;;;;;;323.50;297.50;;;;;;;18.64;32.61;92972.94;5024370;28;20068;-70
2022/04/09 06:41:07;;;;;;;314.08;288.17;;;;;;;18.64;32.41;92978.38;5035623;28;20043;-71
2022/04/09 06:43:33;;;;;;;314.25;288.45;;;;;;;18.63;32.64;92985.75;5039004;28;20489;-71
2022/04/09 06:45:58;;;;;;;319.48;293.42;;;;;;;18.62;32.69;92981.56;5040221;28;20045;-70
2022/04/09 06:48:24;;;;;;;319.95;293.38;;;;;;;18.63;32.37;92977.63;5031354;28;20499;-71
2022/04/09 06:50:49;;;;;;;318.67;292.70;;;;;;;18.64;32.48;92981.06;5044430;28;20042;-71
2022/04/09 06:53:15;;;;;;;314.20;288.67;;;;;;;18.64;32.38;92984.53;5039232;28;20889;-72
2022/04/09 06:55:41;;;;;;;316.13;290.20;;;;;;;18.65;32.18;92994.13;5036724;28;20056;-69
2022/04/09 06:58:07;;;;;;;319.95;293.42;;;;;;;18.64;32.15;92992.66;5037018;28;20037;-68
2022/04/09 07:00:33;;;;;;;317.42;291.42;;;;;;;18.62;32.39;93005.19;5040948;28;20045;-70
2022/04/09 07:03:00;;;;;;;314.30;288.45;;;;;;;18.59;32.07;92996.03;5046062;28;20417;-69
2022/04/09 07:05:26;;;;;;;320.38;294.20;;;;;;;18.61;32.45;93007.16;5035611;28;20272;-69
2022/04/09 07:07:52;;;;;;;330.10;303.23;;;;;;;18.60;32.27;93011.09;5040649;28;20045;-68
2022/04/09 07:10:18;;;;;;;327.63;301.13;;;;;;;18.61;32.20;93011.81;5044584;28;20442;-71
2022/04/09 07:12:43;;;;;;;307.80;282.08;;;;;;;18.64;32.19;93022.44;5046160;28;20138;-73
2022/04/09 07:15:10;;;;;;;325.70;298.45;;;;;;;18.60;32.11;93024.63;5043939;28;20056;-69
2022/04/09 07:17:37;;;;;;;306.65;281.02;;;;;;;18.62;32.24;93029.56;5044401;28;20063;-67
2022/04/09 07:20:06;;;;;;;317.08;290.90;;;;;;;18.63;32.30;93025.63;5048262;28;20052;-68
2022/04/09 07:22:33;;;;;;;316.30;290.17;;;;;;;18.62;32.10;93043.84;5044800;28;20413;-69
2022/04/09 07:24:58;;;;;;;316.33;290.15;;;;;;;18.59;32.14;93025.81;5041616;28;20144;-71
2022/04/09 07:27:44;;;;;;;325.58;298.65;;;;;;;18.57;32.09;93032.94;5042045;28;20172;-70
2022/04/09 07:30:13;;;;;;;317.92;291.60;;;;;;;18.57;31.67;93036.38;5042496;28;20464;-71
2022/04/09 07:32:39;;;;;;;321.15;294.67;;;;;;;18.55;32.10;93052.38;5041470;28;20052;-70
2022/04/09 07:35:05;;;;;;;320.88;294.88;;;;;;;18.60;32.25;93050.94;5048209;28;20087;-69
2022/04/09 07:37:32;;;;;;;320.42;294.30;;;;;;;18.57;31.92;93051.88;5043051;28;20111;-70
2022/04/09 07:39:57;;;;;;;326.45;300.00;;;;;;;18.55;31.97;93048.91;5042002;28;20053;-70
2022/04/09 07:42:24;;;;;;;320.55;294.17;;;;;;;18.55;31.95;93051.63;5037749;28;20048;-68
2022/04/09 07:44:50;;;;;;;322.20;295.95;;;;;;;18.54;32.27;93053.59;5039440;28;20045;-68
2022/04/09 07:47:16;;;;;;;313.45;287.42;;;;;;;18.56;31.77;93058.53;5042129;28;20708;-70
2022/04/09 07:49:44;;;;;;;340.50;311.50;;;;;;;18.55;32.15;93059.75;5014915;28;20144;-70
2022/04/09 07:52:11;;;;;;;336.33;307.73;;;;;;;18.54;32.03;93064.41;5014850;28;20087;-70
2022/04/09 07:54:37;;;;;;;336.15;307.55;;;;;;;18.60;34.38;93061.75;5020847;28;20498;-71
2022/04/09 07:57:03;;;;;;;328.88;300.00;;;;;;;18.70;34.59;93065.81;5017624;28;20121;-71
2022/04/09 07:59:29;;;;;;;309.35;282.52;;;;;;;18.62;33.01;93079.03;5017798;28;21442;-72
2022/04/09 08:01:54;;;;;;;326.55;298.35;;;;;;;18.62;32.82;93073.63;5019563;28;20484;-72
2022/04/09 08:04:20;;;;;;;338.08;308.33;;;;;;;18.64;32.82;93082.00;5017672;28;20061;-72
2022/04/09 08:06:46;;;;;;;315.90;288.10;;;;;;;18.65;32.62;93082.75;5020904;28;20056;-71
2022/04/09 08:09:14;;;;;;;323.33;295.27;;;;;;;18.63;32.73;93085.19;5018753;28;20049;-72
2022/04/09 08:11:39;;;;;;;322.23;294.70;;;;;;;18.62;32.49;93089.88;5020037;28;21222;-71
2022/04/09 08:14:05;;;;;;;323.60;295.88;;;;;;;18.60;32.44;93095.03;5018398;28;20045;-72
2022/04/09 08:16:31;;;;;;;335.27;306.33;;;;;;;18.60;32.14;93092.31;5015430;28;20041;-71
2022/04/09 08:18:57;;;;;;;339.55;310.48;;;;;;;18.58;32.28;93094.00;5018771;28;20561;-71
2022/04/09 08:21:23;;;;;;;344.58;315.23;;;;;;;18.57;32.28;93087.09;5017462;28;20051;-71
2022/04/09 08:23:48;;;;;;;328.73;300.55;;;;;;;18.56;32.46;93096.44;5001455;28;20407;-71
2022/04/09 08:26:14;;;;;;;330.10;301.73;;;;;;;18.56;32.25;93102.59;5002749;28;20060;-71
2022/04/09 08:28:40;;;;;;;336.55;307.95;;;;;;;18.55;32.12;93106.53;5018465;28;20131;-71
2022/04/09 08:31:06;;;;;;;330.70;301.98;;;;;;;18.54;32.12;93102.31;4998281;28;20052;-71
2022/04/09 08:33:32;;;;;;;337.70;309.42;;;;;;;18.50;32.18;93101.78;5010116;28;20156;-72
2022/04/09 08:35:57;;;;;;;337.13;308.60;;;;;;;18.56;32.26;93107.25;4965916;28;1063696;-71
2022/04/09 08:38:23;;;;;;;334.88;306.55;;;;;;;18.57;32.09;93116.88;5021573;28;20064;-72
2022/04/09 08:40:50;;;;;;;329.83;301.70;;;;;;;18.56;32.38;93113.41;5022067;28;20071;-72
2022/04/09 08:43:16;;;;;;;336.73;308.45;;;;;;;18.56;32.16;93113.41;5009785;28;20048;-72
2022/04/09 08:45:41;;;;;;;333.52;306.20;;;;;;;18.58;32.24;93110.97;5019330;28;20049;-72
2022/04/09 08:48:14;;;;;;;332.55;304.55;;;;;;;18.60;32.31;93119.41;5023005;28;20033;-71
2022/04/09 08:50:43;;;;;;;344.88;316.35;;;;;;;18.62;32.22;93116.22;5021124;28;20430;-72
2022/04/09 08:53:09;;;;;;;349.20;319.50;;;;;;;18.61;31.95;93115.47;5018841;28;20048;-71
2022/04/09 08:55:36;;;;;;;338.20;309.83;;;;;;;18.58;32.22;93116.41;5020522;28;20045;-71
2022/04/09 08:58:03;;;;;;;340.60;312.38;;;;;;;18.58;32.28;93119.09;5019677;28;20107;-71
2022/04/09 09:00:29;;;;;;;336.83;308.48;;;;;;;18.59;32.19;93120.59;5023647;28;20557;-72
2022/04/09 09:03:00;;;;;;;342.35;314.08;;;;;;;18.59;32.36;93126.00;5019433;28;20425;-71
2022/04/09 09:05:32;;;;;;;338.33;309.63;;;;;;;18.63;32.25;93128.53;5021671;28;20049;-72
2022/04/09 09:07:58;;;;;;;339.52;311.10;;;;;;;18.63;32.10;93128.53;5022383;28;20103;-72
2022/04/09 09:10:23;;;;;;;337.20;309.42;;;;;;;18.63;32.14;93134.69;5025037;28;20432;-72
2022/04/09 09:13:05;;;;;;;350.38;321.38;;;;;;;18.62;32.16;93138.63;5022095;28;20045;-72
2022/04/09 09:15:44;;;;;;;343.15;314.77;;;;;;;18.66;32.27;93141.84;5018679;28;20148;-72
2022/04/09 09:18:21;;;;;;;348.67;319.60;;;;;;;18.66;32.11;93149.25;5019680;28;20498;-72
2022/04/09 09:20:53;;;;;;;341.52;313.33;;;;;;;18.65;32.17;93145.03;5018806;28;20712;-71
2022/04/09 09:23:30;;;;;;;332.83;305.00;;;;;;;18.64;32.05;93132.72;5017568;28;20052;-71
2022/04/09 09:25:57;;;;;;;342.42;314.13;;;;;;;18.64;31.99;93138.88;5023681;28;20100;-71
2022/04/09 09:28:28;;;;;;;336.60;308.92;;;;;;;18.64;32.08;93138.88;5019278;28;20097;-71
2022/04/09 09:30:59;;;;;;;350.65;322.33;;;;;;;18.66;32.08;93135.69;5003708;28;20520;-72
2022/04/09 09:33:26;;;;;;;356.73;327.13;;;;;;;18.67;32.18;93137.94;4996316;28;20057;-72
2022/04/09 09:36:00;;;;;;;337.65;310.40;;;;;;;18.65;31.89;93147.75;5018459;28;20065;-71
2022/04/09 09:38:31;;;;;;;342.95;315.40;;;;;;;18.65;31.87;93155.88;5016992;28;20489;-71
2022/04/09 09:41:01;;;;;;;333.27;305.05;;;;;;;18.66;32.04;93158.09;5015376;28;20098;-73
2022/04/09 09:43:28;;;;;;;;;;;;;;;18.65;32.08;93153.91;5014828;28;20175;-73
2022/04/09 09:45:54;;;;;;;339.77;310.88;;;;;;;18.64;31.91;93160.53;5006576;28;20794;-72
2022/04/09 09:48:28;;;;;;;342.00;313.20;;;;;;;18.63;32.05;93161.03;5015043;28;20056;-72
2022/04/09 09:50:58;;;;;;;344.05;315.38;;;;;;;18.61;32.25;93150.66;5017719;28;20163;-72
2022/04/09 09:53:31;;;;;;;338.23;309.83;;;;;;;18.57;32.10;93154.78;5015921;28;20037;-72
2022/04/09 09:55:59;;;;;;;337.98;310.40;;;;;;;18.58;32.13;93158.97;5018775;28;20378;-72
2022/04/09 09:58:29;;;;;;;338.92;310.40;;;;;;;18.55;31.94;93157.97;5020418;28;20134;-72
2022/04/09 10:00:56;;;;;;;334.63;306.77;;;;;;;18.57;32.06;93154.78;5018744;28;20504;-72
2022/04/09 10:03:23;;;;;;;347.25;318.52;;;;;;;18.56;31.77;93162.16;5019920;28;20045;-72
2022/04/09 10:05:50;;;;;;;348.83;320.38;;;;;;;18.58;31.95;93157.00;5019981;28;20053;-73
2022/04/09 10:08:17;;;;;;;336.75;309.33;;;;;;;18.57;31.96;93149.38;5022845;28;20048;-72
2022/04/09 10:10:53;;;;;;;331.85;303.80;;;;;;;18.57;31.96;93152.06;5003946;28;20613;-73
2022/04/09 10:13:21;;;;;;;340.30;312.10;;;;;;;18.58;32.03;93161.69;5019483;28;20508;-74
2022/04/09 10:15:52;;;;;;;349.52;320.48;;;;;;;18.53;31.85;93160.41;5019524;28;20049;-73
2022/04/09 10:18:24;;;;;;;334.80;306.58;;;;;;;18.47;31.75;93165.03;5021902;28;20052;-74
2022/04/09 10:20:52;;;;;;;;;;;;;;;18.44;31.99;93164.00;5002393;28;20044;-71
2022/04/09 10:23:19;;;;;;;337.50;309.00;;;;;;;18.42;31.76;93163.00;5021472;28;20018;-73
2022/04/09 10:25:48;;;;;;;333.63;305.52;;;;;;;18.46;31.93;93166.25;5020173;28;20056;-71
2022/04/09 10:28:38;;;;;;;333.50;305.80;;;;;;;18.46;31.79;93163.53;5020571;28;20041;-70
2022/04/09 10:31:22;;;;;;;336.05;308.05;;;;;;;18.45;31.86;93162.03;5016749;28;20371;-70
2022/04/09 10:33:57;;;;;;;339.88;311.38;;;;;;;18.46;31.74;93155.41;5019574;28;20068;-70
2022/04/09 10:36:56;;;;;;;341.63;313.20;;;;;;;18.45;31.69;93159.34;5017872;28;20046;-71
2022/04/09 10:39:41;;;;;;;330.63;302.47;;;;;;;18.48;31.53;93157.66;4979324;28;20098;-71
2022/04/09 10:42:47;;;;;;;336.33;307.83;;;;;;;18.50;31.59;93168.75;5017147;28;20287;-72
2022/04/09 10:45:14;;;;;;;346.85;316.63;;;;;;;18.48;31.83;93158.38;4996325;28;20049;-71
2022/04/09 10:48:07;;;;;;;340.90;311.77;;;;;;;18.47;31.60;93156.91;5018310;28;20635;-71
2022/04/09 10:51:01;;;;;;;338.15;309.48;;;;;;;18.45;31.69;93162.03;4995727;28;20057;-74
2022/04/09 10:53:29;;;;;;;320.45;292.73;;;;;;;18.49;31.79;93154.47;5017847;28;20056;-72
2022/04/09 10:56:29;;;;;;;325.38;297.30;;;;;;;18.54;31.63;93155.75;5014947;28;20506;-72
2022/04/09 10:59:09;;;;;;;334.92;306.27;;;;;;;18.51;31.84;93151.28;4967703;28;20057;-72
2022/04/09 11:01:47;;;;;;;;;;;;;;;18.51;31.85;93152.03;4996909;28;20144;-72
2022/04/09 11:04:37;;;;;;;333.13;304.60;;;;;;;18.43;31.61;93142.81;5014271;28;20341;-72